createdAt,value
2022-08-12T00:00:35.344Z,7.75
2022-08-12T00:03:21.224Z,8.00
2022-08-12T00:06:07.250Z,8.50
2022-08-12T00:08:53.339Z,7.00
2022-08-12T00:11:40.228Z,7.00
2022-08-12T00:14:25.746Z,7.00
2022-08-12T00:17:11.225Z,7.00
2022-08-12T00:19:56.613Z,8.00
2022-08-12T00:22:41.681Z,8.00
2022-08-12T00:26:05.598Z,7.75
2022-08-12T00:28:34.486Z,7.50
2022-08-12T00:31:19.883Z,8.00
2022-08-12T00:34:05.542Z,7.50
2022-08-12T00:36:51.093Z,8.00
2022-08-12T00:39:36.551Z,8.50
2022-08-12T00:42:12.599Z,8.00
2022-08-12T00:44:43.405Z,8.75
2022-08-12T00:47:25.631Z,8.25
2022-08-12T00:49:54.384Z,7.00
2022-08-12T00:52:22.541Z,7.25
2022-08-12T00:54:51.490Z,8.00
2022-08-12T00:57:20.352Z,8.00
2022-08-12T00:59:52.785Z,7.75
2022-08-12T01:02:25.784Z,8.00
2022-08-12T01:05:12.568Z,9.00
2022-08-12T01:07:58.783Z,7.75
2022-08-12T01:10:44.657Z,8.00
2022-08-12T01:13:19.221Z,8.00
2022-08-12T01:15:50.458Z,8.00
2022-08-12T01:18:18.695Z,8.25
2022-08-12T01:20:51.046Z,8.00
2022-08-12T01:23:50.637Z,8.75
2022-08-12T01:26:21.005Z,9.50
2022-08-12T01:28:50.321Z,9.50
2022-08-12T01:31:19.425Z,10.00
2022-08-12T01:33:52.083Z,7.50
2022-08-12T01:36:20.369Z,11.00
2022-08-12T01:38:48.448Z,9.00
2022-08-12T01:41:16.588Z,9.50
2022-08-12T01:43:45.807Z,8.50
2022-08-12T01:46:17.920Z,9.00
2022-08-12T01:49:01.237Z,9.50
2022-08-12T01:52:21.311Z,9.50
2022-08-12T01:54:29.246Z,9.50
2022-08-12T01:56:59.672Z,8.50
2022-08-12T01:59:50.103Z,9.50
2022-08-12T02:02:19.729Z,8.50
2022-08-12T02:05:14.257Z,10.00
2022-08-12T02:08:02.925Z,11.00
2022-08-12T02:10:53.745Z,11.25
2022-08-12T02:13:48.435Z,9.00
2022-08-12T02:16:30.392Z,10.00
2022-08-12T02:19:22.002Z,10.50
2022-08-12T02:22:00.852Z,9.25
2022-08-12T02:24:33.352Z,11.00
2022-08-12T02:27:01.870Z,10.50
2022-08-12T02:29:29.690Z,10.00
2022-08-12T02:32:00.271Z,9.75
2022-08-12T02:34:28.402Z,11.25
2022-08-12T02:36:57.570Z,10.00
2022-08-12T02:39:33.790Z,9.50
2022-08-12T02:42:04.864Z,10.00
2022-08-12T02:44:37.068Z,11.00
2022-08-12T02:47:07.034Z,11.00
2022-08-12T02:49:48.262Z,11.00
2022-08-12T02:52:17.844Z,9.00
2022-08-12T02:54:45.661Z,9.75
2022-08-12T02:57:14.432Z,11.00
2022-08-12T02:59:42.219Z,9.00
2022-08-12T03:02:12.378Z,9.50
2022-08-12T03:04:44.847Z,10.50
2022-08-12T03:07:14.794Z,11.25
2022-08-12T03:10:04.267Z,9.00
2022-08-12T03:12:36.015Z,11.00
2022-08-12T03:15:12.919Z,9.75
2022-08-12T03:18:24.480Z,10.00
2022-08-12T03:20:42.730Z,10.00
2022-08-12T03:23:11.640Z,12.00
2022-08-12T03:25:49.392Z,11.00
2022-08-12T03:28:37.550Z,11.00
2022-08-12T03:31:06.684Z,10.50
2022-08-12T03:33:37.424Z,12.00
2022-08-12T03:36:06.978Z,11.00
2022-08-12T03:38:37.212Z,11.75
2022-08-12T03:41:24.202Z,10.25
2022-08-12T03:44:17.558Z,10.50
2022-08-12T03:47:04.121Z,11.00
2022-08-12T03:49:51.178Z,10.50
2022-08-12T03:52:36.190Z,10.75
2022-08-12T03:55:21.819Z,10.00
2022-08-12T03:58:08.086Z,11.25
2022-08-12T04:00:36.791Z,10.25
2022-08-12T04:03:25.438Z,12.00
2022-08-12T04:05:56.763Z,9.75
2022-08-12T04:08:26.236Z,12.50
2022-08-12T04:11:12.053Z,12.25
2022-08-12T04:13:40.786Z,10.50
2022-08-12T04:16:10.389Z,10.50
2022-08-12T04:18:38.729Z,11.50
2022-08-12T04:21:10.046Z,12.25
2022-08-12T04:23:39.251Z,11.00
2022-08-12T04:26:07.055Z,12.25
2022-08-12T04:28:34.970Z,12.50
2022-08-12T04:31:04.715Z,11.00
2022-08-12T04:33:32.613Z,11.25
2022-08-12T04:36:00.544Z,11.00
2022-08-12T04:38:29.663Z,11.00
2022-08-12T04:40:57.917Z,11.00
2022-08-12T04:44:01.135Z,12.00
2022-08-12T04:46:13.657Z,11.75
2022-08-12T04:48:41.452Z,10.75
2022-08-12T04:51:09.564Z,11.00
2022-08-12T04:53:38.714Z,11.50
2022-08-12T04:56:06.971Z,12.00
2022-08-12T04:58:36.801Z,10.00
2022-08-12T05:01:04.905Z,12.00
2022-08-12T05:03:45.867Z,11.75
2022-08-12T05:06:26.449Z,12.00
2022-08-12T05:08:57.576Z,11.00
2022-08-12T05:11:25.858Z,11.00
2022-08-12T05:13:57.517Z,12.00
2022-08-12T05:16:27.232Z,11.00
2022-08-12T05:18:59.643Z,11.00
2022-08-12T05:21:27.401Z,12.50
2022-08-12T05:23:56.590Z,11.75
2022-08-12T05:26:25.037Z,13.25
2022-08-12T05:28:54.187Z,11.25
2022-08-12T05:31:42.544Z,13.25
2022-08-12T05:34:10.307Z,10.00
2022-08-12T05:36:38.932Z,11.00
2022-08-12T05:39:08.406Z,12.50
2022-08-12T05:41:37.942Z,11.25
2022-08-12T05:44:06.524Z,10.25
2022-08-12T05:46:34.595Z,11.50
2022-08-12T05:49:02.432Z,11.50
2022-08-12T05:51:39.931Z,12.00
2022-08-12T05:54:10.898Z,13.00
2022-08-12T05:56:39.351Z,11.50
2022-08-12T05:59:07.657Z,13.00
2022-08-12T06:02:09.139Z,12.00
2022-08-12T06:04:24.034Z,11.50
2022-08-12T06:06:53.527Z,13.50
2022-08-12T06:09:23.457Z,12.75
2022-08-12T06:12:05.020Z,11.00
2022-08-12T06:14:36.421Z,14.00
2022-08-12T06:17:05.074Z,11.00
2022-08-12T06:20:22.848Z,11.00
2022-08-12T06:22:20.784Z,11.25
2022-08-12T06:24:50.040Z,11.00
2022-08-12T06:27:18.906Z,10.00
2022-08-12T06:30:08.283Z,12.00
2022-08-12T06:32:35.480Z,12.00
2022-08-12T06:35:25.074Z,11.50
2022-08-12T06:37:56.371Z,10.75
2022-08-12T06:40:40.363Z,12.25
2022-08-12T06:43:08.222Z,11.25
2022-08-12T06:45:45.662Z,10.00
2022-08-12T06:48:14.283Z,11.00
2022-08-12T06:50:44.510Z,11.00
2022-08-12T06:53:12.406Z,12.00
2022-08-12T06:55:58.370Z,11.75
2022-08-12T06:58:26.491Z,11.25
2022-08-12T07:00:55.930Z,9.50
2022-08-12T07:03:27.737Z,11.00
2022-08-12T07:05:56.364Z,11.00
2022-08-12T07:08:25.561Z,11.75
2022-08-12T07:10:59.129Z,11.00
2022-08-12T07:13:28.199Z,11.00
2022-08-12T07:15:56.869Z,12.00
2022-08-12T07:18:27.441Z,10.50
2022-08-12T07:20:56.246Z,10.00
2022-08-12T07:23:24.444Z,11.00
2022-08-12T07:25:56.442Z,10.00
2022-08-12T07:28:29.390Z,10.00
2022-08-12T07:30:57.937Z,11.75
2022-08-12T07:33:28.049Z,12.00
2022-08-12T07:35:56.604Z,11.50
2022-08-12T07:38:29.250Z,9.50
2022-08-12T07:41:02.061Z,10.00
2022-08-12T07:43:32.016Z,10.00
2022-08-12T07:46:00.274Z,11.50
2022-08-12T07:48:28.499Z,11.00
2022-08-12T07:50:56.689Z,10.75
2022-08-12T07:53:24.585Z,11.50
2022-08-12T07:55:52.351Z,12.25
2022-08-12T07:58:20.205Z,10.75
2022-08-12T08:00:50.050Z,10.00
2022-08-12T08:03:17.868Z,11.00
2022-08-12T08:05:46.551Z,9.00
2022-08-12T08:08:15.357Z,10.75
2022-08-12T08:10:43.475Z,11.00
2022-08-12T08:13:11.916Z,10.00
2022-08-12T08:16:01.887Z,11.00
2022-08-12T08:18:28.957Z,10.00
2022-08-12T08:20:57.308Z,10.25
2022-08-12T08:23:46.921Z,9.25
2022-08-12T08:26:24.806Z,10.00
2022-08-12T08:28:53.104Z,10.75
2022-08-12T08:31:21.606Z,9.75
2022-08-12T08:34:04.812Z,10.00
2022-08-12T08:36:38.567Z,10.75
2022-08-12T08:39:06.428Z,9.00
2022-08-12T08:42:19.188Z,9.75
2022-08-12T08:44:39.672Z,9.75
2022-08-12T08:47:07.664Z,10.25
2022-08-12T08:49:37.078Z,9.75
2022-08-12T08:52:06.156Z,9.00
2022-08-12T08:54:34.398Z,9.50
2022-08-12T08:57:02.271Z,10.25
2022-08-12T08:59:30.076Z,10.00
2022-08-12T09:01:58.271Z,10.00
2022-08-12T09:05:12.892Z,10.00
2022-08-12T09:10:31.357Z,9.25
2022-08-12T09:13:22.920Z,11.75
2022-08-12T09:15:55.848Z,9.00
2022-08-12T09:18:26.642Z,10.00
2022-08-12T09:21:02.285Z,9.00
2022-08-12T09:23:57.191Z,8.00
2022-08-12T09:26:22.817Z,9.00
2022-08-12T09:28:56.372Z,9.00
2022-08-12T09:32:07.182Z,9.00
2022-08-12T09:34:25.722Z,8.75
2022-08-12T09:37:01.641Z,9.00
2022-08-12T09:40:01.396Z,9.50
2022-08-12T09:42:44.018Z,9.50
2022-08-12T09:46:06.165Z,10.25
2022-08-12T09:48:19.984Z,9.00
2022-08-12T09:50:51.617Z,9.00
2022-08-12T09:53:29.402Z,9.50
2022-08-12T09:57:00.811Z,9.25
2022-08-12T09:58:59.696Z,8.25
2022-08-12T10:01:35.469Z,9.00
2022-08-12T10:04:19.924Z,9.00
2022-08-12T10:06:55.330Z,9.75
2022-08-12T10:09:28.482Z,9.00
2022-08-12T10:12:33.343Z,8.50
2022-08-12T10:15:01.643Z,8.00
2022-08-12T10:17:29.615Z,10.25
2022-08-12T10:19:59.523Z,6.50
2022-08-12T10:22:39.103Z,8.75
2022-08-12T10:26:35.118Z,9.00
2022-08-12T10:28:34.289Z,9.50
2022-08-12T10:31:05.080Z,8.25
2022-08-12T10:33:33.608Z,8.25
2022-08-12T10:36:12.490Z,10.00
2022-08-12T10:38:43.859Z,8.00
2022-08-12T10:41:58.656Z,7.25
2022-08-12T10:44:19.119Z,8.75
2022-08-12T10:46:49.156Z,10.00
2022-08-12T10:50:02.762Z,9.00
2022-08-12T10:52:34.725Z,10.00
2022-08-12T10:54:55.891Z,9.25
2022-08-12T10:58:14.199Z,9.00
2022-08-12T11:00:34.945Z,7.50
2022-08-12T11:04:22.745Z,9.75
2022-08-12T11:07:09.935Z,9.00
2022-08-12T11:08:43.379Z,9.00
2022-08-12T11:12:07.626Z,8.00
2022-08-12T11:14:05.716Z,8.00
2022-08-12T11:16:35.462Z,9.00
2022-08-12T11:19:05.614Z,9.50
2022-08-12T11:21:56.791Z,8.00
2022-08-12T11:24:31.993Z,9.00
2022-08-12T11:27:07.317Z,9.00
2022-08-12T11:30:05.346Z,9.00
2022-08-12T11:32:25.376Z,7.50
2022-08-12T11:34:54.993Z,8.50
2022-08-12T11:37:25.952Z,7.75
2022-08-12T11:42:35.951Z,8.00
2022-08-12T11:45:16.599Z,7.00
2022-08-12T11:47:46.269Z,9.25
2022-08-12T11:50:19.155Z,8.00
2022-08-12T11:52:56.826Z,8.25
2022-08-12T11:55:25.074Z,8.00
2022-08-12T11:58:39.396Z,8.00
2022-08-12T12:03:41.568Z,8.00
2022-08-12T12:06:16.390Z,8.00
2022-08-12T12:08:50.917Z,7.50
2022-08-12T12:11:21.203Z,8.00
2022-08-12T12:14:07.814Z,7.75
2022-08-12T12:16:38.056Z,7.50
2022-08-12T12:19:10.069Z,7.00
2022-08-12T12:21:47.058Z,7.00
2022-08-12T12:24:21.966Z,7.75
2022-08-12T12:27:00.345Z,8.00
2022-08-12T12:30:19.077Z,7.00
2022-08-12T12:32:18.490Z,7.00
2022-08-12T12:35:13.848Z,7.75
2022-08-12T12:38:03.469Z,7.00
2022-08-12T12:40:29.848Z,7.50
2022-08-12T12:43:03.026Z,8.00
2022-08-12T12:45:33.593Z,9.00
2022-08-12T12:48:02.411Z,8.00
2022-08-12T12:50:35.906Z,7.00
2022-08-12T12:54:05.238Z,7.50
2022-08-12T12:56:06.861Z,6.50
2022-08-12T12:58:34.697Z,8.25
2022-08-12T13:01:04.836Z,7.50
2022-08-12T13:03:54.199Z,7.50
2022-08-12T13:06:30.199Z,7.00
2022-08-12T13:09:02.686Z,7.50
2022-08-12T13:11:41.195Z,7.00
2022-08-12T13:14:13.040Z,6.00
2022-08-12T13:16:57.510Z,7.00
2022-08-12T13:19:37.771Z,7.00
2022-08-12T13:22:21.097Z,7.25
2022-08-12T13:24:55.049Z,6.25
2022-08-12T13:27:35.077Z,7.00
2022-08-12T13:30:06.818Z,8.00
2022-08-12T13:32:38.552Z,7.50
2022-08-12T13:35:20.024Z,6.25
2022-08-12T13:37:57.122Z,7.50
2022-08-12T13:40:25.975Z,7.25
2022-08-12T13:42:57.883Z,7.25
2022-08-12T13:45:26.149Z,6.00
2022-08-12T13:47:56.448Z,8.00
2022-08-12T13:50:26.715Z,8.00
2022-08-12T13:52:56.055Z,9.50
2022-08-12T13:55:30.905Z,8.00
2022-08-12T13:58:00.001Z,7.75
2022-08-12T14:00:38.415Z,8.00
2022-08-12T14:03:07.488Z,8.00
2022-08-12T14:05:38.871Z,8.00
2022-08-12T14:08:10.979Z,10.00
2022-08-12T14:10:50.911Z,8.75
2022-08-12T14:14:03.596Z,9.50
2022-08-12T14:16:10.978Z,9.75
2022-08-12T14:18:44.817Z,11.00
2022-08-12T14:21:22.268Z,8.00
2022-08-12T14:24:05.336Z,10.00
2022-08-12T14:26:39.049Z,9.75
2022-08-12T14:29:07.043Z,8.00
2022-08-12T14:31:40.696Z,10.00
2022-08-12T14:34:11.401Z,9.00
2022-08-12T14:36:42.396Z,8.50
2022-08-12T14:39:12.264Z,10.00
2022-08-12T14:41:48.453Z,10.00
2022-08-12T14:44:58.999Z,9.00
2022-08-12T14:47:13.377Z,8.00
2022-08-12T14:50:41.647Z,9.00
2022-08-12T14:53:03.409Z,8.00
2022-08-12T14:58:08.873Z,10.25
2022-08-12T15:00:54.329Z,9.00
2022-08-12T15:03:25.836Z,9.00
2022-08-12T15:06:39.223Z,9.25
2022-08-12T15:09:07.590Z,9.00
2022-08-12T15:11:48.733Z,7.00
2022-08-12T15:14:25.604Z,9.00
2022-08-12T15:16:54.018Z,8.00
2022-08-12T15:20:28.647Z,11.00
2022-08-12T15:22:37.684Z,7.25
2022-08-12T15:25:00.432Z,9.00
2022-08-12T15:27:31.674Z,9.00
2022-08-12T15:29:59.872Z,9.00
2022-08-12T15:32:32.452Z,8.25
2022-08-12T15:35:01.449Z,9.00
2022-08-12T15:37:59.052Z,8.75
2022-08-12T15:40:29.787Z,8.50
2022-08-12T15:43:01.109Z,9.00
2022-08-12T15:45:32.132Z,7.00
2022-08-12T15:48:16.460Z,8.25
2022-08-12T15:50:46.210Z,8.00
2022-08-12T15:53:15.622Z,8.00
2022-08-12T15:55:45.618Z,7.50
2022-08-12T15:58:16.657Z,8.50
2022-08-12T16:00:45.392Z,9.75
2022-08-12T16:03:19.293Z,7.00
2022-08-12T16:06:12.888Z,8.50
2022-08-12T16:08:42.453Z,8.50
2022-08-12T16:11:15.668Z,8.25
2022-08-12T16:13:48.039Z,7.75
2022-08-12T16:16:23.654Z,6.75
2022-08-12T16:18:56.179Z,8.00
2022-08-12T16:21:52.909Z,8.00
2022-08-12T16:24:12.815Z,8.00
2022-08-12T16:26:42.364Z,6.00
2022-08-12T16:29:16.223Z,8.00
2022-08-12T16:31:45.140Z,9.00
2022-08-12T16:34:25.850Z,7.00
2022-08-12T16:37:04.516Z,7.00
2022-08-12T16:40:00.665Z,7.00
2022-08-12T16:42:28.318Z,8.00
2022-08-12T16:44:59.445Z,8.75
2022-08-12T16:47:27.667Z,8.00
2022-08-12T16:49:57.819Z,8.00
2022-08-12T16:52:25.647Z,7.25
2022-08-12T16:54:54.967Z,9.00
2022-08-12T16:57:34.925Z,7.00
2022-08-12T17:00:07.880Z,8.00
2022-08-12T17:02:37.812Z,7.75
2022-08-12T17:05:14.932Z,6.25
2022-08-12T17:07:47.241Z,7.00
2022-08-12T17:10:35.958Z,6.25
2022-08-12T17:13:10.178Z,7.00
2022-08-12T17:15:57.411Z,8.00
2022-08-12T17:18:42.825Z,7.00
2022-08-12T17:21:19.897Z,8.00
2022-08-12T17:23:53.930Z,8.00
2022-08-12T17:26:22.554Z,7.00
2022-08-12T17:28:56.283Z,7.25
2022-08-12T17:31:59.740Z,8.00
2022-08-12T17:34:33.659Z,8.50
2022-08-12T17:37:05.493Z,7.00
2022-08-12T17:40:15.395Z,7.00
2022-08-12T17:42:33.040Z,7.00
2022-08-12T17:45:18.081Z,5.75
2022-08-12T17:48:05.194Z,6.00
2022-08-12T17:50:35.888Z,7.00
2022-08-12T17:53:03.995Z,7.50
2022-08-12T17:55:43.858Z,7.25
2022-08-12T17:58:15.437Z,6.25
2022-08-12T18:00:45.421Z,6.25
2022-08-12T18:04:04.731Z,8.00
2022-08-12T18:06:13.780Z,7.50
2022-08-12T18:08:43.443Z,6.50
2022-08-12T18:12:04.697Z,6.00
2022-08-12T18:14:27.833Z,8.00
2022-08-12T18:16:56.970Z,6.00
2022-08-12T18:19:26.413Z,7.50
2022-08-12T18:22:03.126Z,7.00
2022-08-12T18:24:30.965Z,7.00
2022-08-12T18:26:58.753Z,7.00
2022-08-12T18:29:27.143Z,7.75
2022-08-12T18:32:35.178Z,8.25
2022-08-12T18:35:10.601Z,7.25
2022-08-12T18:37:42.184Z,5.25
2022-08-12T18:40:29.036Z,6.25
2022-08-12T18:42:59.246Z,7.00
2022-08-12T18:45:31.484Z,6.00
2022-08-12T18:48:14.918Z,6.00
2022-08-12T18:50:49.553Z,7.75
2022-08-12T18:54:06.681Z,6.75
2022-08-12T18:56:07.319Z,6.00
2022-08-12T18:58:59.980Z,6.75
2022-08-12T19:02:19.368Z,7.00
2022-08-12T19:04:18.105Z,6.00
2022-08-12T19:06:47.401Z,7.00
2022-08-12T19:09:16.297Z,6.00
2022-08-12T19:12:02.906Z,6.00
2022-08-12T19:14:32.818Z,6.25
2022-08-12T19:17:04.841Z,6.25
2022-08-12T19:19:41.620Z,7.25
2022-08-12T19:22:11.728Z,5.00
2022-08-12T19:25:14.329Z,6.00
2022-08-12T19:27:50.695Z,6.00
2022-08-12T19:30:37.943Z,6.75
2022-08-12T19:33:07.862Z,5.50
2022-08-12T19:36:24.035Z,5.75
2022-08-12T19:38:27.202Z,5.00
2022-08-12T19:40:55.311Z,6.50
2022-08-12T19:43:26.549Z,7.00
2022-08-12T19:46:15.120Z,6.00
2022-08-12T19:48:58.763Z,7.00
2022-08-12T19:51:33.877Z,6.00
2022-08-12T19:54:05.624Z,5.25
2022-08-12T19:56:35.053Z,6.50
2022-08-12T19:59:19.121Z,6.50
2022-08-12T20:02:02.597Z,6.00
2022-08-12T20:04:37.449Z,6.00
2022-08-12T20:07:05.894Z,6.50
2022-08-12T20:09:39.858Z,6.25
2022-08-12T20:12:11.564Z,5.00
2022-08-12T20:14:45.102Z,5.00
2022-08-12T20:17:14.372Z,5.00
2022-08-12T20:20:05.647Z,5.50
2022-08-12T20:22:33.489Z,6.25
2022-08-12T20:25:07.334Z,5.00
2022-08-12T20:28:04.853Z,6.00
2022-08-12T20:30:52.641Z,6.00
2022-08-12T20:33:19.042Z,6.00
2022-08-12T20:36:13.862Z,5.25
2022-08-12T20:38:39.768Z,6.00
2022-08-12T20:41:17.468Z,5.75
2022-08-12T20:43:49.336Z,6.25
2022-08-12T20:46:17.743Z,6.25
2022-08-12T20:48:54.815Z,5.00
2022-08-12T20:51:27.421Z,6.25
2022-08-12T20:53:58.789Z,6.00
2022-08-12T20:56:34.466Z,5.00
2022-08-12T20:59:04.626Z,7.00
2022-08-12T21:01:47.149Z,5.25
2022-08-12T21:04:33.546Z,5.50
2022-08-12T21:07:08.751Z,5.75
2022-08-12T21:09:40.671Z,5.25
2022-08-12T21:12:24.715Z,5.00
2022-08-12T21:15:23.515Z,6.75
2022-08-12T21:18:08.767Z,5.00
2022-08-12T21:20:39.015Z,6.00
2022-08-12T21:23:08.836Z,5.00
2022-08-12T21:25:45.075Z,6.00
2022-08-12T21:28:15.137Z,4.25
2022-08-12T21:31:11.204Z,5.75
2022-08-12T21:33:32.144Z,5.00
2022-08-12T21:36:22.716Z,6.00
2022-08-12T21:39:02.056Z,6.00
2022-08-12T21:41:50.228Z,5.75
2022-08-12T21:44:23.941Z,6.00
2022-08-12T21:47:19.548Z,6.75
2022-08-12T21:49:55.454Z,5.00
2022-08-12T21:52:34.079Z,4.75
2022-08-12T21:55:03.225Z,4.50
2022-08-12T21:57:36.524Z,5.00
2022-08-12T22:00:19.822Z,6.00
2022-08-12T22:03:05.328Z,6.00
2022-08-12T22:05:50.473Z,7.00
2022-08-12T22:08:25.554Z,6.00
2022-08-12T22:10:56.590Z,5.00
2022-08-12T22:14:04.100Z,6.00
2022-08-12T22:16:14.550Z,4.75
2022-08-12T22:18:44.433Z,6.50
2022-08-12T22:21:22.262Z,5.50
2022-08-12T22:24:04.993Z,6.25
2022-08-12T22:26:37.869Z,6.00
2022-08-12T22:29:23.616Z,6.00
2022-08-12T22:31:54.593Z,5.00
2022-08-12T22:34:29.292Z,4.75
2022-08-12T22:36:57.880Z,5.25
2022-08-12T22:39:26.503Z,6.00
2022-08-12T22:42:12.096Z,5.00
2022-08-12T22:44:57.293Z,6.25
2022-08-12T22:47:53.926Z,5.50
2022-08-12T22:50:27.522Z,5.00
2022-08-12T22:53:15.080Z,6.00
2022-08-12T22:55:58.990Z,5.75
2022-08-12T22:58:33.746Z,5.00
2022-08-12T23:01:03.573Z,6.00
2022-08-12T23:03:49.260Z,5.00
2022-08-12T23:06:19.919Z,5.00
2022-08-12T23:08:48.340Z,5.25
2022-08-12T23:11:17.878Z,5.50
2022-08-12T23:13:55.496Z,6.00
2022-08-12T23:16:31.663Z,5.00
2022-08-12T23:19:09.814Z,4.25
2022-08-12T23:22:05.678Z,5.00
2022-08-12T23:24:55.924Z,6.00
2022-08-12T23:27:50.183Z,4.75
2022-08-12T23:30:24.964Z,6.00
2022-08-12T23:32:59.918Z,6.00
2022-08-12T23:35:53.944Z,5.00
2022-08-12T23:38:30.646Z,5.75
2022-08-12T23:41:00.880Z,6.50
2022-08-12T23:43:38.415Z,5.00
2022-08-12T23:46:08.743Z,5.25
2022-08-12T23:48:37.748Z,6.00
2022-08-12T23:51:23.438Z,7.00
2022-08-12T23:53:56.306Z,5.50
2022-08-12T23:56:29.493Z,5.00
2022-08-12T23:58:57.467Z,5.75
